createdAt,value
2024-03-25T00:00:51.256Z,98385.02
2024-03-25T00:03:43.794Z,98385.59
2024-03-25T00:06:14.333Z,98385.29
2024-03-25T00:08:45.785Z,98381.84
2024-03-25T00:11:16.414Z,98381.01
2024-03-25T00:13:48.374Z,98382.92
2024-03-25T00:16:18.811Z,98383.23
2024-03-25T00:18:50.346Z,98383.95
2024-03-25T00:21:20.977Z,98384.95
2024-03-25T00:23:52.536Z,98382.95
2024-03-25T00:26:24.773Z,98378.13
2024-03-25T00:28:56.261Z,98376.81
2024-03-25T00:31:26.885Z,98378.01
2024-03-25T00:33:58.333Z,98376.72
2024-03-25T00:36:29.064Z,98369.84
2024-03-25T00:39:00.515Z,98371.73
2024-03-25T00:41:31.046Z,98370.92
2024-03-25T00:44:02.611Z,98371.20
2024-03-25T00:46:33.334Z,98369.16
2024-03-25T00:49:04.987Z,98364.89
2024-03-25T00:51:35.517Z,98363.55
2024-03-25T00:54:07.065Z,98362.15
2024-03-25T00:56:37.702Z,98359.88
2024-03-25T00:59:09.422Z,98357.66
2024-03-25T01:01:39.882Z,98353.30
2024-03-25T01:04:11.748Z,98343.41
2024-03-25T01:06:42.388Z,98344.35
2024-03-25T01:09:14.335Z,98342.20
2024-03-25T01:11:44.870Z,98338.38
2024-03-25T01:14:16.425Z,98338.02
2024-03-25T01:16:47.055Z,98339.72
2024-03-25T01:19:18.507Z,98338.37
2024-03-25T01:21:49.135Z,98339.66
2024-03-25T01:24:21.302Z,98338.38
2024-03-25T01:26:52.438Z,98340.30
2024-03-25T01:29:24.105Z,98333.57
2024-03-25T01:31:54.936Z,98335.84
2024-03-25T01:34:27.310Z,98336.23
2024-03-25T01:36:58.460Z,98337.95
2024-03-25T01:39:30.199Z,98339.82
2024-03-25T01:42:00.637Z,98340.33
2024-03-25T01:44:32.182Z,98336.45
2024-03-25T01:47:02.606Z,98333.34
2024-03-25T01:49:34.265Z,98333.72
2024-03-25T01:52:05.100Z,98332.64
2024-03-25T01:54:36.857Z,98333.98
2024-03-25T01:57:07.280Z,98340.45
2024-03-25T01:59:39.035Z,98334.80
2024-03-25T02:02:10.184Z,98334.59
2024-03-25T02:04:41.637Z,98333.86
2024-03-25T02:07:12.374Z,98329.38
2024-03-25T02:09:43.300Z,98328.80
2024-03-25T02:12:13.730Z,98324.38
2024-03-25T02:14:45.392Z,98324.45
2024-03-25T02:17:15.713Z,98325.83
2024-03-25T02:19:47.470Z,98325.69
2024-03-25T02:22:17.997Z,98326.74
2024-03-25T02:24:51.888Z,98329.00
2024-03-25T02:27:22.028Z,98331.95
2024-03-25T02:29:53.987Z,98332.03
2024-03-25T02:32:24.208Z,98333.96
2024-03-25T02:34:56.369Z,98339.00
2024-03-25T02:37:27.204Z,98344.39
2024-03-25T02:40:00.364Z,98350.86
2024-03-25T02:42:30.723Z,98348.45
2024-03-25T02:45:02.390Z,98350.34
2024-03-25T02:47:33.016Z,98353.56
2024-03-25T02:50:05.186Z,98352.79
2024-03-25T02:52:35.402Z,98347.81
2024-03-25T02:55:07.670Z,98344.66
2024-03-25T02:57:38.005Z,98341.70
2024-03-25T03:00:10.672Z,98343.77
2024-03-25T03:02:41.406Z,98341.58
2024-03-25T03:05:13.887Z,98340.33
2024-03-25T03:07:44.303Z,98342.95
2024-03-25T03:10:17.217Z,98342.83
2024-03-25T03:12:47.618Z,98348.33
2024-03-25T03:15:19.474Z,98347.62
2024-03-25T03:17:50.006Z,98349.58
2024-03-25T03:20:22.072Z,98347.73
2024-03-25T03:22:52.392Z,98342.55
2024-03-25T03:25:24.046Z,98345.94
2024-03-25T03:27:54.574Z,98347.88
2024-03-25T03:30:26.232Z,98345.08
2024-03-25T03:32:56.867Z,98349.75
2024-03-25T03:35:28.517Z,98349.80
2024-03-25T03:37:59.177Z,98347.86
2024-03-25T03:40:31.007Z,98351.35
2024-03-25T03:43:01.351Z,98350.58
2024-03-25T03:45:34.753Z,98349.30
2024-03-25T03:48:05.505Z,98346.95
2024-03-25T03:50:37.522Z,98348.09
2024-03-25T03:53:07.852Z,98342.73
2024-03-25T03:55:39.603Z,98345.81
2024-03-25T03:58:10.136Z,98347.65
2024-03-25T04:00:41.692Z,98345.38
2024-03-25T04:03:12.213Z,98346.62
2024-03-25T04:05:43.876Z,98348.07
2024-03-25T04:08:14.501Z,98347.21
2024-03-25T04:10:46.468Z,98347.96
2024-03-25T04:13:16.791Z,98350.30
2024-03-25T04:15:48.309Z,98352.42
2024-03-25T04:18:18.980Z,98351.75
2024-03-25T04:20:50.424Z,98348.14
2024-03-25T04:23:20.948Z,98345.10
2024-03-25T04:25:52.509Z,98344.02
2024-03-25T04:28:24.039Z,98346.50
2024-03-25T04:30:55.921Z,98344.89
2024-03-25T04:33:26.459Z,98350.23
2024-03-25T04:35:58.004Z,98346.42
2024-03-25T04:38:28.941Z,98347.35
2024-03-25T04:41:02.566Z,98344.88
2024-03-25T04:43:32.864Z,98345.27
2024-03-25T04:46:05.338Z,98343.86
2024-03-25T04:48:35.761Z,98343.98
2024-03-25T04:51:09.546Z,98341.88
2024-03-25T04:53:43.184Z,98344.17
2024-03-25T04:56:13.703Z,98345.17
2024-03-25T04:58:45.146Z,98347.09
2024-03-25T05:01:15.883Z,98346.73
2024-03-25T05:03:47.639Z,98351.78
2024-03-25T05:06:18.073Z,98358.25
2024-03-25T05:08:49.617Z,98356.54
2024-03-25T05:11:20.972Z,98359.05
2024-03-25T05:13:52.833Z,98362.02
2024-03-25T05:16:23.146Z,98363.71
2024-03-25T05:18:55.106Z,98365.71
2024-03-25T05:21:25.543Z,98368.34
2024-03-25T05:23:57.296Z,98368.00
2024-03-25T05:26:27.716Z,98370.36
2024-03-25T05:28:59.496Z,98377.05
2024-03-25T05:31:29.903Z,98375.82
2024-03-25T05:34:03.961Z,98382.66
2024-03-25T05:36:34.657Z,98383.73
2024-03-25T05:39:06.294Z,98387.48
2024-03-25T05:41:37.039Z,98385.52
2024-03-25T05:44:08.701Z,98386.05
2024-03-25T05:46:40.315Z,98386.20
2024-03-25T05:49:11.815Z,98393.70
2024-03-25T05:51:42.626Z,98393.49
2024-03-25T05:54:14.082Z,98397.07
2024-03-25T05:56:44.781Z,98399.40
2024-03-25T05:59:16.477Z,98401.77
2024-03-25T06:01:47.004Z,98399.25
2024-03-25T06:04:18.456Z,98399.83
2024-03-25T06:06:49.601Z,98402.85
2024-03-25T06:09:21.040Z,98408.15
2024-03-25T06:11:51.779Z,98411.71
2024-03-25T06:14:23.328Z,98414.35
2024-03-25T06:16:54.173Z,98415.09
2024-03-25T06:19:26.744Z,98413.42
2024-03-25T06:21:57.276Z,98417.39
2024-03-25T06:24:28.923Z,98419.19
2024-03-25T06:26:59.353Z,98419.10
2024-03-25T06:29:31.993Z,98418.85
2024-03-25T06:32:21.843Z,98420.86
2024-03-25T06:34:54.487Z,98425.77
2024-03-25T06:37:25.012Z,98425.75
2024-03-25T06:39:56.673Z,98427.65
2024-03-25T06:42:27.405Z,98429.57
2024-03-25T06:45:00.113Z,98438.05
2024-03-25T06:47:30.533Z,98440.84
2024-03-25T06:50:02.634Z,98439.34
2024-03-25T06:52:33.116Z,98440.98
2024-03-25T06:55:05.327Z,98447.20
2024-03-25T06:57:35.692Z,98446.13
2024-03-25T07:00:14.215Z,98447.06
2024-03-25T07:02:46.280Z,98452.86
2024-03-25T07:05:16.706Z,98459.00
2024-03-25T07:07:48.556Z,98459.79
2024-03-25T07:10:21.364Z,98465.17
2024-03-25T07:12:53.000Z,98469.00
2024-03-25T07:15:23.335Z,98466.91
2024-03-25T07:17:54.990Z,98473.91
2024-03-25T07:20:25.877Z,98475.80
2024-03-25T07:22:58.202Z,98474.77
2024-03-25T07:25:28.715Z,98479.52
2024-03-25T07:28:00.478Z,98482.32
2024-03-25T07:30:30.860Z,98484.13
2024-03-25T07:33:02.759Z,98481.90
2024-03-25T07:35:33.398Z,98480.33
2024-03-25T07:38:05.157Z,98484.86
2024-03-25T07:40:35.677Z,98485.70
2024-03-25T07:43:07.842Z,98492.48
2024-03-25T07:45:38.791Z,98498.48
2024-03-25T07:48:10.543Z,98500.26
2024-03-25T07:50:41.511Z,98506.54
2024-03-25T07:53:13.890Z,98514.77
2024-03-25T07:55:44.412Z,98514.41
2024-03-25T07:58:16.037Z,98523.34
2024-03-25T08:00:46.668Z,98531.72
2024-03-25T08:03:18.548Z,98528.86
2024-03-25T08:05:48.946Z,98533.86
2024-03-25T08:08:20.812Z,98539.19
2024-03-25T08:10:51.546Z,98541.33
2024-03-25T08:13:23.482Z,98545.29
2024-03-25T08:15:53.930Z,98542.77
2024-03-25T08:18:25.836Z,98540.90
2024-03-25T08:20:57.095Z,98542.83
2024-03-25T08:23:29.345Z,98540.08
2024-03-25T08:25:59.748Z,98548.26
2024-03-25T08:28:31.403Z,98553.55
2024-03-25T08:31:01.965Z,98555.62
2024-03-25T08:33:33.478Z,98553.73
2024-03-25T08:36:04.915Z,98552.11
2024-03-25T08:38:36.567Z,98551.71
2024-03-25T08:41:06.995Z,98547.46
2024-03-25T08:43:38.656Z,98549.98
2024-03-25T08:46:08.978Z,98543.76
2024-03-25T08:48:40.641Z,98547.62
2024-03-25T08:51:11.265Z,98552.38
2024-03-25T08:53:43.223Z,98554.92
2024-03-25T08:56:13.749Z,98561.57
2024-03-25T08:58:45.388Z,98567.77
2024-03-25T09:01:17.480Z,98567.90
2024-03-25T09:03:55.123Z,98573.36
2024-03-25T09:06:29.075Z,98579.95
2024-03-25T09:09:18.043Z,98581.73
2024-03-25T09:11:49.999Z,98590.80
2024-03-25T09:14:20.532Z,98594.91
2024-03-25T09:16:52.188Z,98591.02
2024-03-25T09:19:23.467Z,98595.22
2024-03-25T09:21:56.120Z,98599.54
2024-03-25T09:24:26.838Z,98608.44
2024-03-25T09:26:58.540Z,98609.34
2024-03-25T09:29:28.828Z,98611.36
2024-03-25T09:32:00.583Z,98610.99
2024-03-25T09:34:31.235Z,98614.67
2024-03-25T09:37:02.764Z,98613.83
2024-03-25T09:39:33.297Z,98618.09
2024-03-25T09:42:04.741Z,98618.03
2024-03-25T09:44:35.293Z,98623.00
2024-03-25T09:47:06.923Z,98619.60
2024-03-25T09:49:37.352Z,98619.31
2024-03-25T09:52:09.657Z,98620.48
2024-03-25T09:54:40.146Z,98619.21
2024-03-25T09:57:11.736Z,98618.23
2024-03-25T09:59:42.640Z,98616.98
2024-03-25T10:02:14.136Z,98621.97
2024-03-25T10:04:47.223Z,98619.58
2024-03-25T10:07:24.069Z,98622.77
2024-03-25T10:09:57.522Z,98618.55
2024-03-25T10:12:28.292Z,98619.98
2024-03-25T10:15:00.252Z,98621.23
2024-03-25T10:17:35.461Z,98619.20
2024-03-25T10:20:10.971Z,98619.58
2024-03-25T10:22:44.007Z,98625.19
2024-03-25T10:25:30.319Z,98631.89
2024-03-25T10:28:02.803Z,98633.70
2024-03-25T10:30:33.178Z,98643.00
2024-03-25T10:33:07.656Z,98642.33
2024-03-25T10:35:41.121Z,98646.70
2024-03-25T10:38:12.260Z,98649.67
2024-03-25T10:40:45.236Z,98651.48
2024-03-25T10:43:15.848Z,98651.33
2024-03-25T10:45:49.022Z,98648.27
2024-03-25T10:48:35.707Z,98647.56
2024-03-25T10:51:08.199Z,98650.16
2024-03-25T10:53:38.704Z,98646.83
2024-03-25T10:56:10.775Z,98651.73
2024-03-25T10:58:41.289Z,98660.89
2024-03-25T11:01:13.057Z,98661.35
2024-03-25T11:03:43.472Z,98657.90
2024-03-25T11:06:16.463Z,98664.58
2024-03-25T11:08:56.649Z,98663.05
2024-03-25T11:11:34.930Z,98662.17
2024-03-25T11:14:17.010Z,98664.16
2024-03-25T11:16:55.214Z,98662.59
2024-03-25T11:19:27.712Z,98663.79
2024-03-25T11:22:16.465Z,98665.04
2024-03-25T11:24:48.631Z,98659.83
2024-03-25T11:27:23.471Z,98655.27
2024-03-25T11:29:55.226Z,98658.00
2024-03-25T11:32:25.719Z,98652.55
2024-03-25T11:34:57.510Z,98652.85
2024-03-25T11:37:28.347Z,98651.58
2024-03-25T11:40:10.081Z,98651.35
2024-03-25T11:42:42.820Z,98652.74
2024-03-25T11:45:22.463Z,98651.29
2024-03-25T11:47:54.939Z,98653.95
2024-03-25T11:50:26.178Z,98661.34
2024-03-25T11:52:57.728Z,98661.02
2024-03-25T11:55:28.577Z,98662.42
2024-03-25T11:58:00.320Z,98660.34
2024-03-25T12:00:30.963Z,98664.88
2024-03-25T12:03:04.659Z,98659.50
2024-03-25T12:05:34.888Z,98656.27
2024-03-25T12:08:09.806Z,98658.90
2024-03-25T12:11:01.230Z,98655.95
2024-03-25T12:13:33.190Z,98654.00
2024-03-25T12:16:04.986Z,98658.90
2024-03-25T12:18:42.574Z,98656.83
2024-03-25T12:21:14.297Z,98659.81
2024-03-25T12:23:44.630Z,98659.65
2024-03-25T12:26:16.898Z,98659.86
2024-03-25T12:28:47.215Z,98657.52
2024-03-25T12:31:19.378Z,98661.45
2024-03-25T12:33:49.617Z,98659.45
2024-03-25T12:36:22.388Z,98664.37
2024-03-25T12:38:58.760Z,98669.86
2024-03-25T12:41:30.406Z,98674.55
2024-03-25T12:44:01.150Z,98678.33
2024-03-25T12:46:33.786Z,98677.16
2024-03-25T12:49:04.351Z,98680.95
2024-03-25T12:51:36.416Z,98678.48
2024-03-25T12:54:07.147Z,98683.52
2024-03-25T12:56:38.800Z,98684.73
2024-03-25T12:59:09.230Z,98684.98
2024-03-25T13:01:41.968Z,98682.96
2024-03-25T13:04:12.439Z,98680.33
2024-03-25T13:06:44.505Z,98676.52
2024-03-25T13:09:14.924Z,98674.50
2024-03-25T13:11:46.782Z,98680.30
2024-03-25T13:14:17.656Z,98680.80
2024-03-25T13:16:49.887Z,98689.50
2024-03-25T13:19:20.312Z,98692.28
2024-03-25T13:21:52.086Z,98694.84
2024-03-25T13:24:22.507Z,98696.59
2024-03-25T13:26:54.051Z,98698.24
2024-03-25T13:29:24.591Z,98700.42
2024-03-25T13:32:02.763Z,98700.90
2024-03-25T13:34:38.021Z,98700.02
2024-03-25T13:37:08.352Z,98703.73
2024-03-25T13:39:40.012Z,98702.42
2024-03-25T13:42:10.334Z,98707.39
2024-03-25T13:44:42.085Z,98716.57
2024-03-25T13:47:12.623Z,98717.82
2024-03-25T13:49:44.454Z,98717.31
2024-03-25T13:52:14.795Z,98717.77
2024-03-25T13:54:46.583Z,98722.27
2024-03-25T13:57:16.883Z,98726.69
2024-03-25T13:59:48.583Z,98724.71
2024-03-25T14:02:19.385Z,98728.36
2024-03-25T14:04:51.029Z,98731.34
2024-03-25T14:07:21.456Z,98729.54
2024-03-25T14:09:53.216Z,98729.91
2024-03-25T14:12:25.027Z,98731.77
2024-03-25T14:14:57.034Z,98731.20
2024-03-25T14:17:27.494Z,98731.55
2024-03-25T14:19:59.423Z,98733.23
2024-03-25T14:22:29.863Z,98735.09
2024-03-25T14:25:01.711Z,98733.89
2024-03-25T14:27:32.643Z,98730.23
2024-03-25T14:30:05.123Z,98730.96
2024-03-25T14:32:35.852Z,98733.63
2024-03-25T14:35:08.086Z,98733.42
2024-03-25T14:37:38.652Z,98730.86
2024-03-25T14:40:10.890Z,98734.15
2024-03-25T14:42:41.651Z,98728.77
2024-03-25T14:45:13.314Z,98728.61
2024-03-25T14:47:43.738Z,98732.24
2024-03-25T14:50:15.590Z,98734.45
2024-03-25T14:52:47.868Z,98734.44
2024-03-25T14:55:19.542Z,98741.31
2024-03-25T14:57:49.955Z,98742.48
2024-03-25T15:00:22.067Z,98742.20
2024-03-25T15:02:52.760Z,98745.03
2024-03-25T15:05:24.324Z,98744.96
2024-03-25T15:07:54.778Z,98748.35
2024-03-25T15:10:27.820Z,98743.66
2024-03-25T15:12:58.139Z,98747.30
2024-03-25T15:15:32.261Z,98749.95
2024-03-25T15:18:02.692Z,98746.74
2024-03-25T15:20:34.488Z,98747.41
2024-03-25T15:23:05.382Z,98750.92
2024-03-25T15:25:37.027Z,98753.18
2024-03-25T15:28:07.579Z,98756.52
2024-03-25T15:30:39.406Z,98754.11
2024-03-25T15:33:09.844Z,98750.34
2024-03-25T15:35:41.697Z,98757.41
2024-03-25T15:38:12.658Z,98753.46
2024-03-25T15:40:47.392Z,98761.30
2024-03-25T15:43:20.179Z,98760.80
2024-03-25T15:45:57.484Z,98759.66
2024-03-25T15:48:29.505Z,98762.48
2024-03-25T15:50:59.918Z,98764.14
2024-03-25T15:53:31.581Z,98763.38
2024-03-25T15:56:02.516Z,98765.17
2024-03-25T15:58:34.574Z,98766.57
2024-03-25T16:01:05.113Z,98771.50
2024-03-25T16:03:36.668Z,98770.92
2024-03-25T16:06:07.524Z,98771.09
2024-03-25T16:08:38.945Z,98774.05
2024-03-25T16:11:17.030Z,98780.23
2024-03-25T16:13:50.374Z,98776.65
2024-03-25T16:16:20.909Z,98781.05
2024-03-25T16:18:52.456Z,98783.70
2024-03-25T16:21:25.009Z,98787.06
2024-03-25T16:23:56.916Z,98789.41
2024-03-25T16:26:27.498Z,98793.23
2024-03-25T16:28:59.082Z,98792.13
2024-03-25T16:31:29.490Z,98794.53
2024-03-25T16:34:01.619Z,98798.20
2024-03-25T16:36:32.066Z,98805.35
2024-03-25T16:39:04.967Z,98808.77
2024-03-25T16:41:35.412Z,98812.31
2024-03-25T16:44:07.237Z,98814.67
2024-03-25T16:46:38.840Z,98818.55
2024-03-25T16:49:10.517Z,98827.48
2024-03-25T16:51:40.978Z,98824.73
2024-03-25T16:54:12.772Z,98828.44
2024-03-25T16:56:43.531Z,98827.39
2024-03-25T16:59:15.273Z,98829.59
2024-03-25T17:01:45.887Z,98834.48
2024-03-25T17:04:17.974Z,98837.15
2024-03-25T17:06:48.556Z,98841.28
2024-03-25T17:09:20.618Z,98846.14
2024-03-25T17:11:52.791Z,98844.02
2024-03-25T17:14:24.660Z,98850.08
2024-03-25T17:16:55.179Z,98848.20
2024-03-25T17:19:27.149Z,98851.64
2024-03-25T17:21:57.360Z,98854.39
2024-03-25T17:24:28.915Z,98854.15
2024-03-25T17:26:59.337Z,98858.05
2024-03-25T17:29:31.232Z,98861.46
2024-03-25T17:32:01.922Z,98865.33
2024-03-25T17:34:33.649Z,98874.48
2024-03-25T17:37:04.012Z,98878.39
2024-03-25T17:39:36.482Z,98880.58
2024-03-25T17:42:06.703Z,98882.84
2024-03-25T17:44:40.433Z,98882.63
2024-03-25T17:47:10.835Z,98886.67
2024-03-25T17:49:42.492Z,98886.51
2024-03-25T17:52:13.473Z,98888.64
2024-03-25T17:54:45.187Z,98887.36
2024-03-25T17:57:17.761Z,98888.77
2024-03-25T17:59:50.987Z,98890.30
2024-03-25T18:02:21.477Z,98890.20
2024-03-25T18:04:53.131Z,98887.74
2024-03-25T18:07:23.659Z,98885.23
2024-03-25T18:09:55.419Z,98887.05
2024-03-25T18:12:26.658Z,98889.40
2024-03-25T18:14:58.319Z,98895.84
2024-03-25T18:17:28.867Z,98889.85
2024-03-25T18:20:00.517Z,98889.90
2024-03-25T18:22:31.138Z,98893.52
2024-03-25T18:25:02.800Z,98894.58
2024-03-25T18:27:33.218Z,98902.29
2024-03-25T18:30:05.377Z,98900.83
2024-03-25T18:32:35.890Z,98900.20
2024-03-25T18:35:08.179Z,98902.30
2024-03-25T18:37:38.706Z,98905.03
2024-03-25T18:40:14.576Z,98913.54
2024-03-25T18:42:46.217Z,98918.13
2024-03-25T18:45:16.675Z,98923.86
2024-03-25T18:47:48.516Z,98926.11
2024-03-25T18:50:18.838Z,98927.31
2024-03-25T18:52:50.991Z,98930.52
2024-03-25T18:55:21.221Z,98932.77
2024-03-25T18:57:52.867Z,98935.47
2024-03-25T19:00:24.304Z,98934.55
2024-03-25T19:02:55.874Z,98935.54
2024-03-25T19:05:26.312Z,98935.44
2024-03-25T19:07:58.370Z,98940.35
2024-03-25T19:10:28.501Z,98946.27
2024-03-25T19:13:01.225Z,98946.88
2024-03-25T19:15:31.490Z,98946.48
2024-03-25T19:18:04.033Z,98948.39
2024-03-25T19:20:34.472Z,98948.45
2024-03-25T19:23:06.437Z,98947.27
2024-03-25T19:25:36.979Z,98946.82
2024-03-25T19:28:08.746Z,98945.71
2024-03-25T19:30:39.067Z,98944.84
2024-03-25T19:33:10.825Z,98947.63
2024-03-25T19:35:41.143Z,98952.11
2024-03-25T19:38:12.802Z,98952.93
2024-03-25T19:40:43.123Z,98958.23
2024-03-25T19:43:14.876Z,98956.80
2024-03-25T19:45:47.151Z,98955.03
2024-03-25T19:48:20.221Z,98954.39
2024-03-25T19:50:50.771Z,98955.80
2024-03-25T19:53:24.326Z,98954.88
2024-03-25T19:56:01.372Z,98955.45
2024-03-25T19:58:32.899Z,98958.48
2024-03-25T20:01:14.216Z,98953.52
2024-03-25T20:03:47.272Z,98951.98
2024-03-25T20:06:17.996Z,98954.60
2024-03-25T20:08:49.757Z,98956.41
2024-03-25T20:11:20.185Z,98958.61
2024-03-25T20:13:52.714Z,98953.58
2024-03-25T20:16:23.501Z,98953.55
2024-03-25T20:18:54.942Z,98954.84
2024-03-25T20:21:25.484Z,98954.85
2024-03-25T20:23:57.027Z,98954.55
2024-03-25T20:26:27.659Z,98951.23
2024-03-25T20:28:59.107Z,98953.77
2024-03-25T20:31:29.742Z,98963.11
2024-03-25T20:34:01.505Z,98961.41
2024-03-25T20:36:32.023Z,98962.42
2024-03-25T20:39:03.986Z,98962.38
2024-03-25T20:41:34.471Z,98962.64
2024-03-25T20:44:06.787Z,98959.55
2024-03-25T20:46:37.939Z,98967.79
2024-03-25T20:49:09.689Z,98966.55
2024-03-25T20:51:40.336Z,98972.95
2024-03-25T20:54:11.866Z,98972.80
2024-03-25T20:56:42.298Z,98976.37
2024-03-25T20:59:14.309Z,98975.40
2024-03-25T21:01:45.113Z,98971.61
2024-03-25T21:04:17.566Z,98968.57
2024-03-25T21:06:47.785Z,98972.10
2024-03-25T21:09:19.773Z,98975.84
2024-03-25T21:11:49.982Z,98975.52
2024-03-25T21:14:21.940Z,98974.60
2024-03-25T21:16:52.374Z,98974.91
2024-03-25T21:19:24.224Z,98974.11
2024-03-25T21:21:54.546Z,98975.47
2024-03-25T21:24:26.413Z,98979.08
2024-03-25T21:26:56.626Z,98976.59
2024-03-25T21:29:28.498Z,98977.80
2024-03-25T21:31:58.722Z,98977.54
2024-03-25T21:34:33.229Z,98979.08
2024-03-25T21:37:06.639Z,98983.51
2024-03-25T21:39:37.153Z,98983.95
2024-03-25T21:42:08.811Z,98983.27
2024-03-25T21:44:39.558Z,98985.23
2024-03-25T21:47:11.212Z,98978.92
2024-03-25T21:49:41.624Z,98980.00
2024-03-25T21:52:13.995Z,98982.14
2024-03-25T21:54:44.628Z,98983.17
2024-03-25T21:57:16.281Z,98985.80
2024-03-25T21:59:47.121Z,98984.59
2024-03-25T22:02:19.426Z,98988.17
2024-03-25T22:04:50.017Z,98991.21
2024-03-25T22:07:21.671Z,98992.99
2024-03-25T22:09:52.097Z,98994.95
2024-03-25T22:12:23.857Z,98998.44
2024-03-25T22:14:54.388Z,99001.88
2024-03-25T22:17:25.944Z,99001.53
2024-03-25T22:19:56.365Z,98999.51
2024-03-25T22:22:28.119Z,99005.35
2024-03-25T22:24:58.445Z,99004.08
2024-03-25T22:27:30.195Z,99003.44
2024-03-25T22:30:00.831Z,99001.59
2024-03-25T22:32:32.666Z,99002.48
2024-03-25T22:35:03.122Z,98998.68
2024-03-25T22:37:40.234Z,98997.63
2024-03-25T22:40:13.702Z,98999.30
2024-03-25T22:42:46.481Z,99000.83
2024-03-25T22:45:18.030Z,99001.08
2024-03-25T22:47:48.587Z,98998.33
2024-03-25T22:50:20.737Z,98998.23
2024-03-25T22:52:51.253Z,98997.06
2024-03-25T22:55:22.911Z,99000.54
2024-03-25T22:57:53.151Z,98995.58
2024-03-25T23:00:24.995Z,98998.42
2024-03-25T23:02:55.419Z,98996.73
2024-03-25T23:05:27.582Z,98998.59
2024-03-25T23:07:58.035Z,98991.91
2024-03-25T23:10:29.769Z,98992.27
2024-03-25T23:13:00.197Z,98993.13
2024-03-25T23:15:31.853Z,98998.70
2024-03-25T23:18:02.698Z,98996.13
2024-03-25T23:20:41.575Z,98995.23
2024-03-25T23:23:13.992Z,98996.77
2024-03-25T23:25:45.537Z,98994.31
2024-03-25T23:28:17.096Z,99000.35
2024-03-25T23:30:47.615Z,98995.56
2024-03-25T23:33:19.285Z,98994.57
2024-03-25T23:35:50.214Z,98994.77
2024-03-25T23:38:21.687Z,98996.73
2024-03-25T23:40:52.291Z,98998.67
2024-03-25T23:43:23.748Z,98996.64
2024-03-25T23:45:57.552Z,98995.11
2024-03-25T23:48:29.941Z,98997.21
2024-03-25T23:51:00.563Z,98992.84
2024-03-25T23:53:32.518Z,98996.70
2024-03-25T23:56:03.050Z,98998.84
2024-03-25T23:58:34.689Z,99000.54
